Time;durP1;ratioP1;P1;durP2;ratioP2;P2;SDS_P1;SDS_P2;PMS_P1;PMS_P2;Temp;Humidity;BMP_temperature;BMP_pressure;BME280_temperature;BME280_humidity;BME280_pressure;Samples;Min_cycle;Max_cycle;Signal;HPM_P1;HPM_P2
2022/10/31 00:01:54;;;;;;;14.47;7.33;;;;;;;;;;5014702;28;20396;-65
2022/10/31 00:04:20;;;;;;;13.50;5.30;;;;;;;;;;5026247;28;20772;-67
2022/10/31 00:06:45;;;;;;;21.43;5.73;;;;;;;;;;5023225;28;20375;-66
2022/10/31 00:09:10;;;;;;;18.52;7.35;;;;;;;;;;5018777;28;20764;-66
2022/10/31 00:11:35;;;;;;;15.18;5.90;;;;;;;;;;5028202;28;20017;-65
2022/10/31 00:14:01;;;;;;;17.42;6.03;;;;;;;;;;5020482;28;20022;-66
2022/10/31 00:16:27;;;;;;;24.10;7.05;;;;;;;;;;5024545;28;20507;-69
2022/10/31 00:18:53;;;;;;;27.83;7.10;;;;;;;;;;5021489;28;20021;-69
2022/10/31 00:21:18;;;;;;;14.68;5.65;;;;;;;;;;5020645;28;20042;-67
2022/10/31 00:23:44;;;;;;;21.30;7.53;;;;;;;;;;5026122;28;20124;-65
2022/10/31 00:26:09;;;;;;;17.58;5.93;;;;;;;;;;5019258;28;20021;-68
2022/10/31 00:28:34;;;;;;;16.92;6.28;;;;;;;;;;5022804;28;20021;-68
2022/10/31 00:31:00;;;;;;;24.30;6.20;;;;;;;;;;5022400;28;20061;-67
2022/10/31 00:33:26;;;;;;;11.77;5.47;;;;;;;;;;5020376;28;20277;-67
2022/10/31 00:35:51;;;;;;;27.48;6.85;;;;;;;;;;5022474;28;20019;-66
2022/10/31 00:38:16;;;;;;;18.63;6.33;;;;;;;;;;5024044;28;20055;-66
2022/10/31 00:40:41;;;;;;;18.27;7.13;;;;;;;;;;5028240;28;20268;-66
2022/10/31 00:43:06;;;;;;;27.63;6.67;;;;;;;;;;5018179;28;20670;-66
2022/10/31 00:45:32;;;;;;;18.80;5.77;;;;;;;;;;5021553;28;20276;-66
2022/10/31 00:47:57;;;;;;;14.10;7.03;;;;;;;;;;5025982;28;20280;-66
2022/10/31 00:50:22;;;;;;;25.20;6.00;;;;;;;;;;5024208;28;20048;-71
2022/10/31 00:52:47;;;;;;;13.43;5.60;;;;;;;;;;5018031;28;20342;-65
2022/10/31 00:55:12;;;;;;;15.43;6.30;;;;;;;;;;5028582;28;20055;-65
2022/10/31 00:57:37;;;;;;;15.30;6.20;;;;;;;;;;5020477;28;20390;-68
2022/10/31 01:00:03;;;;;;;21.60;6.30;;;;;;;;;;5042138;28;20268;-65
2022/10/31 01:02:28;;;;;;;18.70;6.00;;;;;;;;;;5023460;28;20311;-66
2022/10/31 01:04:53;;;;;;;18.10;7.27;;;;;;;;;;5023992;28;20025;-68
2022/10/31 01:07:18;;;;;;;13.32;6.30;;;;;;;;;;5024867;28;20795;-66
2022/10/31 01:09:44;;;;;;;22.03;7.30;;;;;;;;;;5021696;28;20037;-71
2022/10/31 01:12:09;;;;;;;21.70;6.60;;;;;;;;;;5025514;28;20315;-65
2022/10/31 01:14:34;;;;;;;16.58;6.43;;;;;;;;;;5024603;28;20298;-67
2022/10/31 01:16:59;;;;;;;11.60;5.93;;;;;;;;;;5016453;28;20402;-65
2022/10/31 01:19:24;;;;;;;16.70;6.93;;;;;;;;;;5025920;28;20290;-68
2022/10/31 01:21:49;;;;;;;18.37;5.97;;;;;;;;;;5019995;28;20303;-66
2022/10/31 01:24:15;;;;;;;22.53;7.03;;;;;;;;;;5021837;28;20028;-68
2022/10/31 01:26:40;;;;;;;19.97;6.10;;;;;;;;;;5022260;28;20327;-67
2022/10/31 01:29:06;;;;;;;18.75;6.22;;;;;;;;;;5018614;28;20279;-66
2022/10/31 01:31:33;;;;;;;19.67;7.32;;;;;;;;;;5020003;28;20025;-67
2022/10/31 01:33:59;;;;;;;16.42;5.95;;;;;;;;;;5019057;28;20592;-67
2022/10/31 01:36:29;;;;;;;19.23;6.70;;;;;;;;;;5027400;28;20037;-67
2022/10/31 01:38:56;;;;;;;13.02;6.40;;;;;;;;;;5023830;28;20022;-67
2022/10/31 01:41:23;;;;;;;18.20;7.13;;;;;;;;;;5021211;28;20060;-69
2022/10/31 01:43:50;;;;;;;16.95;6.28;;;;;;;;;;5018940;28;20404;-67
2022/10/31 01:46:17;;;;;;;19.00;6.60;;;;;;;;;;5024612;28;20028;-68
2022/10/31 01:48:42;;;;;;;16.27;6.90;;;;;;;;;;5025532;28;20022;-66
2022/10/31 01:51:08;;;;;;;21.02;6.50;;;;;;;;;;5024458;28;20044;-68
2022/10/31 01:53:34;;;;;;;16.08;6.85;;;;;;;;;;5022611;28;20025;-67
2022/10/31 01:56:00;;;;;;;20.90;6.40;;;;;;;;;;5028247;28;20033;-69
2022/10/31 01:58:26;;;;;;;23.00;6.32;;;;;;;;;;5022188;28;20155;-67
2022/10/31 02:00:54;;;;;;;19.58;7.00;;;;;;;;;;5027491;28;20048;-66
2022/10/31 02:03:20;;;;;;;15.02;6.82;;;;;;;;;;5030439;28;20151;-67
2022/10/31 02:05:46;;;;;;;25.13;6.53;;;;;;;;;;5024756;28;20113;-67
2022/10/31 02:08:13;;;;;;;25.70;6.47;;;;;;;;;;5027041;28;20059;-66
2022/10/31 02:10:39;;;;;;;14.75;6.70;;;;;;;;;;5027727;28;20424;-70
2022/10/31 02:13:06;;;;;;;16.98;7.05;;;;;;;;;;5014457;28;20112;-67
2022/10/31 02:15:32;;;;;;;13.70;6.43;;;;;;;;;;5029234;28;20025;-67
2022/10/31 02:17:58;;;;;;;20.55;6.40;;;;;;;;;;5024377;28;20103;-66
2022/10/31 02:20:25;;;;;;;23.90;6.68;;;;;;;;;;5031391;28;20022;-67
2022/10/31 02:23:08;;;;;;;18.55;5.75;;;;;;;;;;5022838;28;20025;-69
2022/10/31 02:25:48;;;;;;;18.67;6.63;;;;;;;;;;5027908;28;20021;-67
2022/10/31 02:28:30;;;;;;;17.70;6.07;;;;;;;;;;5016838;28;20030;-66
2022/10/31 02:31:13;;;;;;;15.02;7.15;;;;;;;;;;5021430;28;20108;-67
2022/10/31 02:33:45;;;;;;;29.20;6.55;;;;;;;;;;5022711;28;20529;-68
2022/10/31 02:36:22;;;;;;;14.75;6.40;;;;;;;;;;5024303;28;20104;-66
2022/10/31 02:39:00;;;;;;;19.02;6.95;;;;;;;;;;5030247;28;20426;-67
2022/10/31 02:41:31;;;;;;;17.30;6.45;;;;;;;;;;5030756;28;20024;-67
2022/10/31 02:43:56;;;;;;;18.88;6.63;;;;;;;;;;5028352;28;20021;-67
2022/10/31 02:46:30;;;;;;;16.00;6.83;;;;;;;;;;5031906;28;20462;-67
2022/10/31 02:48:57;;;;;;;18.55;6.00;;;;;;;;;;5031364;28;20276;-67
2022/10/31 02:51:22;;;;;;;16.38;6.50;;;;;;;;;;5031519;28;20025;-67
2022/10/31 02:53:47;;;;;;;25.75;6.88;;;;;;;;;;5028742;28;20071;-67
2022/10/31 02:56:14;;;;;;;16.15;6.43;;;;;;;;;;5031154;28;20071;-67
2022/10/31 02:58:45;;;;;;;13.18;6.55;;;;;;;;;;5029759;28;20528;-67
2022/10/31 03:01:13;;;;;;;23.38;6.43;;;;;;;;;;5026417;28;20025;-67
2022/10/31 03:03:54;;;;;;;20.27;6.82;;;;;;;;;;5024386;28;20100;-66
2022/10/31 03:06:22;;;;;;;20.45;6.00;;;;;;;;;;5031070;28;20022;-67
2022/10/31 03:08:47;;;;;;;20.55;6.57;;;;;;;;;;5028984;28;20013;-69
2022/10/31 03:11:13;;;;;;;26.15;6.35;;;;;;;;;;5030578;28;20029;-67
2022/10/31 03:13:38;;;;;;;16.30;5.97;;;;;;;;;;5026288;28;20025;-67
2022/10/31 03:16:10;;;;;;;25.13;7.57;;;;;;;;;;5029922;28;20022;-67
2022/10/31 03:18:55;;;;;;;19.88;6.60;;;;;;;;;;5026910;28;20371;-67
2022/10/31 03:21:23;;;;;;;15.95;6.93;;;;;;;;;;5014046;28;20494;-67
2022/10/31 03:23:50;;;;;;;21.58;6.25;;;;;;;;;;5022536;28;20030;-67
2022/10/31 03:26:15;;;;;;;20.45;6.47;;;;;;;;;;5026157;28;20433;-68
2022/10/31 03:28:46;;;;;;;25.85;8.07;;;;;;;;;;5031382;28;20025;-67
2022/10/31 03:31:11;;;;;;;;;;;;;;;;;;5025503;28;20036;-68
2022/10/31 03:33:37;;;;;;;27.98;6.75;;;;;;;;;;5030288;28;19917;-66
2022/10/31 03:36:04;;;;;;;23.17;6.90;;;;;;;;;;5029619;28;20663;-67
2022/10/31 03:38:29;;;;;;;19.80;6.53;;;;;;;;;;5028732;28;20518;-68
2022/10/31 03:40:55;;;;;;;18.88;6.40;;;;;;;;;;5029859;28;20021;-67
2022/10/31 03:43:24;;;;;;;13.00;6.57;;;;;;;;;;5028661;28;20498;-67
2022/10/31 03:45:49;;;;;;;27.88;6.97;;;;;;;;;;5027361;28;20098;-66
2022/10/31 03:48:15;;;;;;;21.55;7.50;;;;;;;;;;5030532;28;20029;-66
2022/10/31 03:51:16;;;;;;;27.95;7.20;;;;;;;;;;5027262;28;20041;-67
2022/10/31 03:53:45;;;;;;;15.40;6.97;;;;;;;;;;4988087;28;20631;-67
2022/10/31 03:56:10;;;;;;;26.27;7.22;;;;;;;;;;5016596;28;20042;-67
2022/10/31 03:58:43;;;;;;;14.50;6.65;;;;;;;;;;5017808;28;20616;-67
2022/10/31 04:01:11;;;;;;;19.83;7.18;;;;;;;;;;5022601;28;20076;-67
2022/10/31 04:03:37;;;;;;;20.08;7.13;;;;;;;;;;5022921;28;20020;-68
2022/10/31 04:06:05;;;;;;;22.02;7.80;;;;;;;;;;5025383;28;20024;-69
2022/10/31 04:08:32;;;;;;;15.23;6.75;;;;;;;;;;5020081;28;20022;-67
2022/10/31 04:10:58;;;;;;;21.27;7.35;;;;;;;;;;5025917;28;20037;-67
2022/10/31 04:13:25;;;;;;;18.13;7.55;;;;;;;;;;5028238;28;20050;-66
2022/10/31 04:15:51;;;;;;;20.88;6.72;;;;;;;;;;5024987;28;20486;-68
2022/10/31 04:18:17;;;;;;;20.98;7.47;;;;;;;;;;5028194;28;20504;-67
2022/10/31 04:20:42;;;;;;;17.95;7.20;;;;;;;;;;5025250;28;20064;-67
2022/10/31 04:23:16;;;;;;;19.40;6.97;;;;;;;;;;5023446;28;20112;-67
2022/10/31 04:25:41;;;;;;;15.32;6.65;;;;;;;;;;5028014;28;20359;-67
2022/10/31 04:28:06;;;;;;;20.38;7.35;;;;;;;;;;5029137;28;20117;-67
2022/10/31 04:30:31;;;;;;;20.87;7.23;;;;;;;;;;5027593;28;20108;-67
2022/10/31 04:32:57;;;;;;;26.97;7.00;;;;;;;;;;5028530;28;20307;-67
2022/10/31 04:35:22;;;;;;;23.70;8.43;;;;;;;;;;5025848;28;20278;-67
2022/10/31 04:37:47;;;;;;;20.52;6.32;;;;;;;;;;5027811;28;20292;-68
2022/10/31 04:40:12;;;;;;;21.63;6.87;;;;;;;;;;5030364;28;20113;-67
2022/10/31 04:42:37;;;;;;;18.33;7.03;;;;;;;;;;5027483;28;20284;-66
2022/10/31 04:45:03;;;;;;;18.37;6.93;;;;;;;;;;5026968;28;20057;-66
2022/10/31 04:47:30;;;;;;;20.95;7.00;;;;;;;;;;5029303;28;20279;-67
2022/10/31 04:49:55;;;;;;;21.00;7.30;;;;;;;;;;5028544;28;20017;-66
2022/10/31 04:52:20;;;;;;;20.43;7.57;;;;;;;;;;5042862;28;20497;-66
2022/10/31 04:54:45;;;;;;;19.13;7.17;;;;;;;;;;5028919;28;20268;-66
2022/10/31 04:57:10;;;;;;;20.80;7.03;;;;;;;;;;5028850;28;20276;-67
2022/10/31 04:59:36;;;;;;;19.40;7.37;;;;;;;;;;5028225;28;20299;-66
2022/10/31 05:02:01;;;;;;;26.50;7.70;;;;;;;;;;5028589;28;20768;-67
2022/10/31 05:04:26;;;;;;;31.30;7.80;;;;;;;;;;5027944;28;20272;-67
2022/10/31 05:06:51;;;;;;;25.53;8.70;;;;;;;;;;5026848;28;20768;-67
2022/10/31 05:09:16;;;;;;;19.67;7.88;;;;;;;;;;5019525;28;20271;-68
2022/10/31 05:11:41;;;;;;;22.07;8.77;;;;;;;;;;5020191;28;20021;-67
2022/10/31 05:14:07;;;;;;;20.07;7.70;;;;;;;;;;5022134;28;20780;-67
2022/10/31 05:16:32;;;;;;;24.17;9.07;;;;;;;;;;5023337;28;20281;-67
2022/10/31 05:18:57;;;;;;;26.37;9.23;;;;;;;;;;5019797;28;20022;-70
2022/10/31 05:21:22;;;;;;;23.53;8.83;;;;;;;;;;5022540;28;20748;-66
2022/10/31 05:23:47;;;;;;;20.40;8.77;;;;;;;;;;5022586;28;20276;-66
2022/10/31 05:26:12;;;;;;;21.43;8.20;;;;;;;;;;5027487;28;20764;-67
2022/10/31 05:28:38;;;;;;;18.57;7.80;;;;;;;;;;5027991;28;20374;-66
2022/10/31 05:31:03;;;;;;;22.27;8.70;;;;;;;;;;5025251;28;20666;-67
2022/10/31 05:33:28;;;;;;;20.95;9.32;;;;;;;;;;5025445;28;20073;-66
2022/10/31 05:35:53;;;;;;;24.45;10.05;;;;;;;;;;5023771;28;20379;-67
2022/10/31 05:38:19;;;;;;;28.55;9.60;;;;;;;;;;5024595;28;20040;-68
2022/10/31 05:40:44;;;;;;;22.80;8.93;;;;;;;;;;5024617;28;20080;-67
2022/10/31 05:43:09;;;;;;;19.30;8.10;;;;;;;;;;5023718;28;20367;-68
2022/10/31 05:45:34;;;;;;;20.67;9.07;;;;;;;;;;5023387;28;20636;-67
2022/10/31 05:48:00;;;;;;;21.65;8.00;;;;;;;;;;5024409;28;20276;-68
2022/10/31 05:50:26;;;;;;;21.40;8.40;;;;;;;;;;5023248;28;20018;-67
2022/10/31 05:52:55;;;;;;;25.77;8.57;;;;;;;;;;5022442;28;20036;-66
2022/10/31 05:55:20;;;;;;;27.70;8.95;;;;;;;;;;5023921;28;20509;-67
2022/10/31 05:57:45;;;;;;;22.08;8.65;;;;;;;;;;5023805;28;20026;-67
2022/10/31 06:00:11;;;;;;;22.97;8.77;;;;;;;;;;5026843;28;20028;-66
2022/10/31 06:02:36;;;;;;;26.65;9.23;;;;;;;;;;5028395;28;20375;-69
2022/10/31 06:05:02;;;;;;;23.83;8.70;;;;;;;;;;5022169;28;20049;-67
2022/10/31 06:07:31;;;;;;;23.88;8.38;;;;;;;;;;5023069;28;20108;-67
2022/10/31 06:09:56;;;;;;;23.13;9.00;;;;;;;;;;5016743;28;20033;-67
2022/10/31 06:12:21;;;;;;;21.77;8.70;;;;;;;;;;5022421;28;20472;-67
2022/10/31 06:14:47;;;;;;;29.13;9.90;;;;;;;;;;5023189;28;20375;-67
2022/10/31 06:17:12;;;;;;;27.33;9.00;;;;;;;;;;5016990;28;20777;-67
2022/10/31 06:19:37;;;;;;;17.83;8.63;;;;;;;;;;5023482;28;20280;-68
2022/10/31 06:22:02;;;;;;;27.83;10.07;;;;;;;;;;5028057;28;20272;-67
2022/10/31 06:24:27;;;;;;;23.53;10.63;;;;;;;;;;5028516;28;20283;-67
2022/10/31 06:26:52;;;;;;;20.00;9.83;;;;;;;;;;5024516;28;20774;-69
2022/10/31 06:29:17;;;;;;;32.80;11.33;;;;;;;;;;5028310;28;20276;-67
2022/10/31 06:31:44;;;;;;;17.98;8.52;;;;;;;;;;5022570;28;20312;-67
2022/10/31 06:34:09;;;;;;;19.23;8.88;;;;;;;;;;5024582;28;20067;-66
2022/10/31 06:36:34;;;;;;;24.67;9.73;;;;;;;;;;5020282;28;20025;-66
2022/10/31 06:39:00;;;;;;;34.77;9.97;;;;;;;;;;5018077;28;20268;-66
2022/10/31 06:41:25;;;;;;;23.42;9.07;;;;;;;;;;5027963;28;20280;-66
2022/10/31 06:43:50;;;;;;;26.47;9.77;;;;;;;;;;5025493;28;20474;-67
2022/10/31 06:46:15;;;;;;;20.20;9.33;;;;;;;;;;5021127;28;20300;-67
2022/10/31 06:48:41;;;;;;;20.50;8.53;;;;;;;;;;5020363;28;20758;-66
2022/10/31 06:51:06;;;;;;;26.70;8.82;;;;;;;;;;5019991;28;20271;-66
2022/10/31 06:53:32;;;;;;;21.40;9.00;;;;;;;;;;5025523;28;20021;-66
2022/10/31 06:55:57;;;;;;;29.20;10.30;;;;;;;;;;5027177;28;20363;-67
2022/10/31 06:58:22;;;;;;;21.25;9.30;;;;;;;;;;5022173;28;20284;-67
2022/10/31 07:00:47;;;;;;;24.52;8.65;;;;;;;;;;5018797;28;20040;-66
2022/10/31 07:03:13;;;;;;;25.07;9.27;;;;;;;;;;5022389;28;20203;-67
2022/10/31 07:05:38;;;;;;;23.17;9.43;;;;;;;;;;5027889;28;20278;-67
2022/10/31 07:11:06;;;;;;;23.98;8.32;;;;;;;;;;5024776;28;20239;-66
2022/10/31 07:13:32;;;;;;;19.67;8.75;;;;;;;;;;5019196;28;20029;-67
2022/10/31 07:16:02;;;;;;;17.00;8.45;;;;;;;;;;5022692;28;20025;-70
2022/10/31 07:18:27;;;;;;;21.03;8.60;;;;;;;;;;5027887;22;20047;-64
2022/10/31 07:20:52;;;;;;;25.17;9.17;;;;;;;;;;4989689;28;20559;-65
2022/10/31 07:23:18;;;;;;;19.38;9.00;;;;;;;;;;4990519;28;20396;-65
2022/10/31 07:25:43;;;;;;;25.92;10.32;;;;;;;;;;4991012;28;20022;-65
2022/10/31 07:28:08;;;;;;;28.10;9.55;;;;;;;;;;4989869;28;20018;-64
2022/10/31 07:30:34;;;;;;;29.40;9.80;;;;;;;;;;4986445;28;20109;-64
2022/10/31 07:32:59;;;;;;;19.25;9.25;;;;;;;;;;4989841;28;20038;-65
2022/10/31 07:35:25;;;;;;;14.73;7.80;;;;;;;;;;4983129;28;20022;-64
2022/10/31 07:37:50;;;;;;;17.85;8.48;;;;;;;;;;4982119;28;20392;-65
2022/10/31 07:40:16;;;;;;;23.92;10.10;;;;;;;;;;4980124;28;20015;-65
2022/10/31 07:42:42;;;;;;;27.90;9.73;;;;;;;;;;4986398;28;20026;-65
2022/10/31 07:45:09;;;;;;;24.88;9.27;;;;;;;;;;4987559;28;20030;-65
2022/10/31 07:47:41;;;;;;;26.88;9.52;;;;;;;;;;4984637;28;20022;-64
2022/10/31 07:50:06;;;;;;;20.77;8.60;;;;;;;;;;4990167;28;20028;-63
2022/10/31 07:52:32;;;;;;;29.95;9.88;;;;;;;;;;4987505;28;20022;-64
2022/10/31 07:54:57;;;;;;;22.87;9.90;;;;;;;;;;4982194;28;20474;-64
2022/10/31 07:57:22;;;;;;;29.33;10.05;;;;;;;;;;4988420;28;20037;-64
2022/10/31 07:59:47;;;;;;;28.60;9.80;;;;;;;;;;4988311;28;20026;-63
2022/10/31 08:02:12;;;;;;;24.33;8.17;;;;;;;;;;4988194;28;20023;-65
2022/10/31 08:04:37;;;;;;;23.27;9.47;;;;;;;;;;4989129;28;20265;-65
2022/10/31 08:07:03;;;;;;;25.97;8.83;;;;;;;;;;4986771;28;20788;-63
2022/10/31 08:09:28;;;;;;;21.77;9.30;;;;;;;;;;4987693;28;20281;-65
2022/10/31 08:11:53;;;;;;;21.57;8.67;;;;;;;;;;4989619;28;20037;-64
2022/10/31 08:14:18;;;;;;;24.90;8.32;;;;;;;;;;4986870;28;20285;-64
2022/10/31 08:16:43;;;;;;;19.50;8.63;;;;;;;;;;4990358;28;20109;-64
2022/10/31 08:19:09;;;;;;;28.97;8.90;;;;;;;;;;4990626;28;20308;-65
2022/10/31 08:21:34;;;;;;;19.57;8.47;;;;;;;;;;4981910;28;20266;-65
2022/10/31 08:23:59;;;;;;;20.50;8.10;;;;;;;;;;4989828;28;20376;-65
2022/10/31 08:26:24;;;;;;;17.40;7.90;;;;;;;;;;4990792;28;20289;-64
2022/10/31 08:28:50;;;;;;;21.38;8.63;;;;;;;;;;4986868;28;20362;-64
2022/10/31 08:31:15;;;;;;;22.40;8.35;;;;;;;;;;4987989;28;20491;-65
2022/10/31 08:33:40;;;;;;;21.77;8.30;;;;;;;;;;4989451;28;20022;-65
2022/10/31 08:36:05;;;;;;;16.80;8.27;;;;;;;;;;4988888;28;20036;-65
2022/10/31 08:38:30;;;;;;;19.27;8.65;;;;;;;;;;4987490;28;20288;-65
2022/10/31 08:40:56;;;;;;;23.65;9.00;;;;;;;;;;4990890;28;20061;-65
2022/10/31 08:43:21;;;;;;;19.60;8.10;;;;;;;;;;4989773;28;20032;-65
2022/10/31 08:45:48;;;;;;;23.27;9.27;;;;;;;;;;4985530;28;20034;-63
2022/10/31 08:48:14;;;;;;;24.73;8.68;;;;;;;;;;4987773;28;20316;-65
2022/10/31 08:50:39;;;;;;;19.33;8.13;;;;;;;;;;4969589;28;20030;-65
2022/10/31 08:53:15;;;;;;;33.63;8.98;;;;;;;;;;4987333;28;20028;-65
2022/10/31 08:55:41;;;;;;;18.13;8.60;;;;;;;;;;4990561;28;20504;-64
2022/10/31 08:58:07;;;;;;;22.73;10.38;;;;;;;;;;4987962;28;20110;-64
2022/10/31 09:00:33;;;;;;;25.08;9.05;;;;;;;;;;4985595;28;20050;-65
2022/10/31 09:02:59;;;;;;;31.17;10.38;;;;;;;;;;4990026;28;20038;-66
2022/10/31 09:05:24;;;;;;;26.00;8.75;;;;;;;;;;4987090;28;20475;-65
2022/10/31 09:07:49;;;;;;;20.10;8.45;;;;;;;;;;4991593;28;20018;-65
2022/10/31 09:10:14;;;;;;;18.20;7.80;;;;;;;;;;4991147;28;20068;-66
2022/10/31 09:12:41;;;;;;;18.33;8.57;;;;;;;;;;4988246;28;20065;-65
2022/10/31 09:15:06;;;;;;;22.48;7.55;;;;;;;;;;4990953;28;20018;-64
2022/10/31 09:17:31;;;;;;;20.63;9.07;;;;;;;;;;4987496;28;20038;-65
2022/10/31 09:19:57;;;;;;;23.10;8.25;;;;;;;;;;4988481;28;20041;-66
2022/10/31 09:22:22;;;;;;;19.53;8.70;;;;;;;;;;4989232;28;20102;-65
2022/10/31 09:24:47;;;;;;;21.95;8.63;;;;;;;;;;4989474;28;20653;-65
2022/10/31 09:27:12;;;;;;;17.80;8.37;;;;;;;;;;4989327;28;20033;-65
2022/10/31 09:29:37;;;;;;;21.73;7.78;;;;;;;;;;4982298;28;20277;-64
2022/10/31 09:32:03;;;;;;;17.07;8.33;;;;;;;;;;4987360;28;20444;-65
2022/10/31 09:34:28;;;;;;;27.70;9.13;;;;;;;;;;4985193;28;20283;-65
2022/10/31 09:36:53;;;;;;;22.95;7.90;;;;;;;;;;4992109;28;20087;-65
2022/10/31 09:39:18;;;;;;;20.02;8.43;;;;;;;;;;4984917;28;20629;-64
2022/10/31 09:41:47;;;;;;;19.08;9.50;;;;;;;;;;4988729;28;20033;-65
2022/10/31 09:44:26;;;;;;;26.20;8.75;;;;;;;;;;4991244;28;20034;-66
2022/10/31 09:46:57;;;;;;;24.60;8.40;;;;;;;;;;4992438;28;20050;-66
2022/10/31 09:49:25;;;;;;;32.22;9.00;;;;;;;;;;4988046;28;20023;-66
2022/10/31 09:51:54;;;;;;;22.42;8.98;;;;;;;;;;4987588;28;20022;-64
2022/10/31 09:54:28;;;;;;;22.98;9.27;;;;;;;;;;4989986;28;20031;-66
2022/10/31 09:56:55;;;;;;;20.90;7.75;;;;;;;;;;4992752;28;20058;-66
2022/10/31 09:59:25;;;;;;;21.23;9.45;;;;;;;;;;4986639;28;20054;-65
2022/10/31 10:01:54;;;;;;;26.80;7.43;;;;;;;;;;4991632;28;20030;-67
2022/10/31 10:04:19;;;;;;;18.27;7.70;;;;;;;;;;4995803;28;20018;-66
2022/10/31 10:06:46;;;;;;;20.10;7.43;;;;;;;;;;4992299;28;20019;-68
2022/10/31 10:09:11;;;;;;;13.55;7.47;;;;;;;;;;4985463;28;20030;-66
2022/10/31 10:11:39;;;;;;;30.20;11.57;;;;;;;;;;4989405;28;20010;-67
2022/10/31 10:14:04;;;;;;;21.63;6.68;;;;;;;;;;4992339;28;20277;-67
2022/10/31 10:16:42;;;;;;;35.03;8.87;;;;;;;;;;4994954;28;20014;-67
2022/10/31 10:19:34;;;;;;;17.83;6.82;;;;;;;;;;4988563;28;20030;-65
2022/10/31 10:22:06;;;;;;;26.40;7.05;;;;;;;;;;4995360;28;20022;-63
2022/10/31 10:24:50;;;;;;;26.38;6.28;;;;;;;;;;4993971;28;20019;-65
2022/10/31 10:27:34;;;;;;;29.58;8.30;;;;;;;;;;4974666;28;20030;-65
2022/10/31 10:30:04;;;;;;;26.08;8.48;;;;;;;;;;4987746;28;20030;-64
2022/10/31 10:32:31;;;;;;;24.45;7.00;;;;;;;;;;4995726;28;20133;-65
2022/10/31 10:35:07;;;;;;;14.40;5.63;;;;;;;;;;4994654;28;20037;-65
2022/10/31 10:37:40;;;;;;;19.35;5.80;;;;;;;;;;4985086;28;20030;-67
2022/10/31 10:40:11;;;;;;;21.67;6.07;;;;;;;;;;4998522;28;20015;-66
2022/10/31 10:48:14;;;;;;;10.77;3.88;;;;;;;;;;4998738;28;20032;-64
2022/10/31 10:50:42;;;;;;;14.68;4.25;;;;;;;;;;4999541;28;20150;-66
2022/10/31 10:53:32;;;;;;;16.60;5.35;;;;;;;;;;4980006;28;20058;-66
2022/10/31 10:56:02;;;;;;;21.40;5.82;;;;;;;;;;4994133;28;20029;-66
2022/10/31 10:58:27;;;;;;;19.85;7.15;;;;;;;;;;5000826;28;20061;-66
2022/10/31 11:00:54;;;;;;;15.73;4.60;;;;;;;;;;4995583;28;20026;-66
2022/10/31 11:03:20;;;;;;;21.10;5.63;;;;;;;;;;4993881;28;20281;-66
2022/10/31 11:05:52;;;;;;;20.63;5.80;;;;;;;;;;4995825;28;20025;-65
2022/10/31 11:08:31;;;;;;;13.30;5.40;;;;;;;;;;4994860;28;20284;-66
2022/10/31 11:11:04;;;;;;;13.57;4.93;;;;;;;;;;4998299;28;20029;-66
2022/10/31 11:13:29;;;;;;;20.23;4.53;;;;;;;;;;4997232;28;20124;-65
2022/10/31 11:15:54;;;;;;;16.33;4.80;;;;;;;;;;4999245;28;20109;-66
2022/10/31 11:18:21;;;;;;;13.17;4.70;;;;;;;;;;4998219;28;20034;-66
2022/10/31 11:20:50;;;;;;;18.35;5.65;;;;;;;;;;4998258;28;20018;-66
2022/10/31 11:23:19;;;;;;;16.50;3.90;;;;;;;;;;4999121;28;20026;-65
2022/10/31 11:25:49;;;;;;;13.32;4.72;;;;;;;;;;4996575;28;20033;-66
2022/10/31 11:28:14;;;;;;;12.82;4.18;;;;;;;;;;4996171;28;20157;-65
2022/10/31 11:30:44;;;;;;;13.77;6.30;;;;;;;;;;4998248;28;20363;-67
2022/10/31 11:33:25;;;;;;;14.32;4.22;;;;;;;;;;4995100;28;20274;-66
2022/10/31 11:35:52;;;;;;;10.55;3.95;;;;;;;;;;4976903;28;20091;-66
2022/10/31 11:38:19;;;;;;;17.40;3.45;;;;;;;;;;4978986;28;20085;-67
2022/10/31 11:40:55;;;;;;;6.75;3.42;;;;;;;;;;4991844;28;20023;-65
2022/10/31 11:43:21;;;;;;;19.08;3.72;;;;;;;;;;4996421;28;20038;-66
2022/10/31 11:45:46;;;;;;;16.65;4.18;;;;;;;;;;4994393;28;20360;-66
2022/10/31 11:48:19;;;;;;;22.48;4.00;;;;;;;;;;4997945;28;20202;-66
2022/10/31 11:50:48;;;;;;;13.93;3.85;;;;;;;;;;4993279;28;20030;-66
2022/10/31 11:53:17;;;;;;;17.40;5.00;;;;;;;;;;4995208;28;20026;-66
2022/10/31 11:55:43;;;;;;;20.77;4.57;;;;;;;;;;4967887;28;20030;-65
2022/10/31 11:58:22;;;;;;;17.65;4.28;;;;;;;;;;4992893;28;20026;-66
2022/10/31 12:00:51;;;;;;;26.67;5.50;;;;;;;;;;4994016;28;20018;-67
2022/10/31 12:03:16;;;;;;;12.17;3.13;;;;;;;;;;4994303;28;20096;-64
2022/10/31 12:05:44;;;;;;;23.70;5.90;;;;;;;;;;4995167;28;20026;-66
2022/10/31 12:08:11;;;;;;;12.85;4.55;;;;;;;;;;4998598;28;20037;-66
2022/10/31 12:10:46;;;;;;;12.00;3.58;;;;;;;;;;4995908;28;20026;-67
2022/10/31 12:13:31;;;;;;;15.05;4.13;;;;;;;;;;4999371;28;20073;-66
2022/10/31 12:16:04;;;;;;;14.82;3.90;;;;;;;;;;4993601;28;20040;-66
2022/10/31 12:18:38;;;;;;;9.02;3.08;;;;;;;;;;4993921;28;20050;-66
2022/10/31 12:21:29;;;;;;;19.35;4.15;;;;;;;;;;4989819;28;20026;-65
2022/10/31 12:24:07;;;;;;;15.68;4.28;;;;;;;;;;4993957;28;20026;-66
2022/10/31 12:26:51;;;;;;;17.40;4.22;;;;;;;;;;4993298;28;20030;-66
2022/10/31 12:29:19;;;;;;;16.42;3.92;;;;;;;;;;4989097;28;20475;-65
2022/10/31 12:31:50;;;;;;;20.90;3.75;;;;;;;;;;4994407;28;20552;-66
2022/10/31 12:34:15;;;;;;;13.18;3.33;;;;;;;;;;4992169;28;20102;-66
2022/10/31 12:36:57;;;;;;;12.00;3.50;;;;;;;;;;4997499;28;20069;-66
2022/10/31 12:39:22;;;;;;;17.35;4.15;;;;;;;;;;4994616;28;20057;-66
2022/10/31 12:41:52;;;;;;;16.83;3.97;;;;;;;;;;4975584;28;20015;-67
2022/10/31 12:44:37;;;;;;;12.63;4.38;;;;;;;;;;4994295;28;20157;-66
2022/10/31 12:47:25;;;;;;;18.05;3.33;;;;;;;;;;4990036;28;20043;-66
2022/10/31 12:49:56;;;;;;;14.35;3.58;;;;;;;;;;4985866;28;20045;-66
2022/10/31 12:52:21;;;;;;;7.85;2.60;;;;;;;;;;4996001;28;20064;-66
2022/10/31 12:55:05;;;;;;;8.13;3.73;;;;;;;;;;4993775;28;20101;-67
2022/10/31 12:57:33;;;;;;;9.55;3.38;;;;;;;;;;4995787;28;20038;-67
2022/10/31 13:00:10;;;;;;;10.65;3.22;;;;;;;;;;4992348;28;20022;-67
2022/10/31 13:02:40;;;;;;;8.80;2.58;;;;;;;;;;4994126;28;20073;-67
2022/10/31 13:05:25;;;;;;;15.82;2.92;;;;;;;;;;4998285;28;20019;-65
2022/10/31 13:08:08;;;;;;;20.95;3.97;;;;;;;;;;4953145;28;20061;-66
2022/10/31 13:10:42;;;;;;;12.23;3.00;;;;;;;;;;4979296;28;20018;-66
2022/10/31 13:13:27;;;;;;;9.57;2.38;;;;;;;;;;4988799;28;20109;-65
2022/10/31 13:18:44;;;;;;;16.92;4.57;;;;;;;;;;5565512;23;20065;-68
2022/10/31 13:21:12;;;;;;;10.80;3.55;;;;;;;;;;5024072;28;20400;-65
2022/10/31 13:23:38;;;;;;;7.72;4.03;;;;;;;;;;5022790;28;20021;-65
2022/10/31 13:26:09;;;;;;;14.40;3.67;;;;;;;;;;5025100;28;20013;-64
2022/10/31 13:28:38;;;;;;;25.00;5.15;;;;;;;;;;5030442;28;20029;-67
2022/10/31 13:31:03;;;;;;;17.08;4.30;;;;;;;;;;5033023;28;20028;-65
2022/10/31 13:33:32;;;;;;;13.98;3.75;;;;;;;;;;5030268;28;20021;-66
2022/10/31 13:36:16;;;;;;;15.45;5.60;;;;;;;;;;5028312;28;20029;-65
2022/10/31 13:38:42;;;;;;;5.57;1.95;;;;;;;;;;5030459;28;20025;-66
2022/10/31 13:41:10;;;;;;;12.73;2.75;;;;;;;;;;5031294;28;20466;-66
2022/10/31 13:43:51;;;;;;;22.02;4.63;;;;;;;;;;5030776;28;20436;-66
2022/10/31 13:46:23;;;;;;;11.13;4.43;;;;;;;;;;5030299;28;20110;-66
2022/10/31 13:48:48;;;;;;;9.82;3.65;;;;;;;;;;5030737;28;20482;-66
2022/10/31 13:51:23;;;;;;;8.50;3.00;;;;;;;;;;5034245;28;20033;-65
2022/10/31 13:53:51;;;;;;;15.02;3.70;;;;;;;;;;5031806;28;20279;-67
2022/10/31 13:56:28;;;;;;;18.92;3.88;;;;;;;;;;5032257;28;20389;-67
2022/10/31 13:59:14;;;;;;;14.35;3.55;;;;;;;;;;5032632;28;20025;-66
2022/10/31 14:01:51;;;;;;;29.30;4.78;;;;;;;;;;5033779;28;20017;-65
2022/10/31 14:04:27;;;;;;;9.38;3.03;;;;;;;;;;5033417;28;20101;-65
2022/10/31 14:06:52;;;;;;;17.73;3.40;;;;;;;;;;5028182;28;20017;-66
2022/10/31 14:09:28;;;;;;;11.13;4.33;;;;;;;;;;5032676;28;20025;-65
2022/10/31 14:11:54;;;;;;;13.90;3.33;;;;;;;;;;5029482;28;20517;-65
2022/10/31 14:14:20;;;;;;;11.48;2.53;;;;;;;;;;5036003;28;20223;-66
2022/10/31 14:16:45;;;;;;;15.57;3.97;;;;;;;;;;5030376;28;20414;-66
2022/10/31 14:19:18;;;;;;;13.68;3.10;;;;;;;;;;5031653;28;20029;-65
2022/10/31 14:21:47;;;;;;;17.15;2.75;;;;;;;;;;5030951;28;20018;-65
2022/10/31 14:24:30;;;;;;;12.60;3.72;;;;;;;;;;5030452;28;20017;-68
2022/10/31 14:26:59;;;;;;;14.18;3.58;;;;;;;;;;5030059;28;20541;-65
2022/10/31 14:29:31;;;;;;;17.65;3.42;;;;;;;;;;5029458;28;20024;-65
2022/10/31 14:31:59;;;;;;;15.63;4.13;;;;;;;;;;5029359;28;20420;-65
2022/10/31 14:34:27;;;;;;;16.73;3.78;;;;;;;;;;5029387;28;20373;-68
2022/10/31 14:36:55;;;;;;;17.17;3.40;;;;;;;;;;5028486;28;20489;-65
2022/10/31 14:39:22;;;;;;;13.98;3.63;;;;;;;;;;5029737;28;20558;-67
2022/10/31 14:41:53;;;;;;;14.32;3.67;;;;;;;;;;5028548;28;20018;-66
2022/10/31 14:44:36;;;;;;;6.03;2.58;;;;;;;;;;5032759;28;20564;-65
2022/10/31 14:47:20;;;;;;;7.70;3.13;;;;;;;;;;5032472;28;20048;-66
2022/10/31 14:50:03;;;;;;;26.08;4.32;;;;;;;;;;5029477;28;20099;-66